Hotmin Airstrip


Codes: AYHT/
Name: Hotmin Airstrip
City: Hotmin Mission
Country: Papua New Guinea
Elevation: 196 ft.

Photos at Hotmin Airstrip


   Photos courtesy of SpottingLog. You can add your own sightings and photos by signing up for a free trial today.



No photos found.

Weather at Hotmin Airstrip


Time (UTC)DescriptionTempratureWindCloud coverageVisibilityPressureHumidity
23-May-2024 21:00Light Rain25°C2 mph, S100%10000m1010hPa98%
24-May-2024 00:00Light Rain27°C0 mph, N100%9073m1011hPa94%
24-May-2024 03:00Light Rain31°C2 mph, NE97%10000m1009hPa73%
24-May-2024 06:00Light Rain33°C2 mph, NE85%10000m1006hPa57%
24-May-2024 09:00Light Rain26°C2 mph, E71%10000m1009hPa96%
24-May-2024 12:00Moderate Rain25°C2 mph, S86%10000m1011hPa98%
24-May-2024 15:00Light Rain25°C2 mph, S100%10000m1011hPa98%
24-May-2024 18:00Light Rain24°C2 mph, S100%10000m1010hPa99%
24-May-2024 21:00Light Rain24°C2 mph, S32%10000m1011hPa98%
25-May-2024 00:00Scattered Clouds31°C2 mph, N29%10000m1011hPa69%
25-May-2024 03:00Light Rain33°C4 mph, NE80%10000m1008hPa64%
25-May-2024 06:00Light Rain31°C4 mph, NE65%10000m1007hPa78%
25-May-2024 09:00Light Rain26°C2 mph, S77%10000m1009hPa93%
25-May-2024 12:00Light Rain25°C4 mph, SW86%10000m1011hPa96%
25-May-2024 15:00Light Rain24°C2 mph, S87%4502m1011hPa99%
25-May-2024 18:00Moderate Rain24°C2 mph, SW93%10000m1010hPa99%
25-May-2024 21:00Light Rain24°C2 mph, S98%10000m1012hPa99%
26-May-2024 00:00Light Rain30°C2 mph, N93%10000m1012hPa71%
26-May-2024 03:00Light Rain34°C2 mph, NE44%10000m1008hPa55%
26-May-2024 06:00Light Rain31°C2 mph, E73%10000m1007hPa72%
26-May-2024 09:00Moderate Rain26°C2 mph, S89%10000m1009hPa96%
26-May-2024 12:00Moderate Rain25°C2 mph, S95%3728m1011hPa99%
26-May-2024 15:00Moderate Rain25°C2 mph, S100%8755m1010hPa99%
26-May-2024 18:00Moderate Rain24°C2 mph, S100%10000m1010hPa99%
26-May-2024 21:00Light Rain24°C2 mph, SW94%10000m1011hPa99%
27-May-2024 00:00Overcast Clouds30°C2 mph, N87%10000m1011hPa73%
27-May-2024 03:00Scattered Clouds33°C4 mph, NE29%10000m1008hPa55%
27-May-2024 06:00Few Clouds33°C4 mph, NE22%10000m1006hPa52%
27-May-2024 09:00Broken Clouds27°C0 mph, SE63%10000m1009hPa88%
27-May-2024 12:00Broken Clouds25°C4 mph, SW78%10000m1010hPa91%
27-May-2024 15:00Overcast Clouds25°C2 mph, S98%10000m1009hPa91%
27-May-2024 18:00Overcast Clouds24°C2 mph, SW99%10000m1009hPa92%
27-May-2024 21:00Overcast Clouds24°C2 mph, SW88%10000m1010hPa93%
28-May-2024 00:00Broken Clouds31°C2 mph, N66%10000m1010hPa67%
28-May-2024 03:00Broken Clouds34°C4 mph, NE51%10000m1008hPa54%
28-May-2024 06:00Light Rain31°C2 mph, NE62%10000m1006hPa69%
28-May-2024 09:00Light Rain26°C2 mph, S63%10000m1009hPa91%
28-May-2024 12:00Light Rain25°C4 mph, SW57%10000m1011hPa96%
28-May-2024 15:00Broken Clouds25°C2 mph, SW83%10000m1010hPa95%
28-May-2024 18:00Overcast Clouds24°C0 mph, SE85%10000m1009hPa97%